sensor_id;sensor_type;location;lat;lon;timestamp;P1;durP1;ratioP1;P2;durP2;ratioP2
84816;SDS011;75051;53.104;18.058;2024-02-14T00:00:32;16.70;;;9.50;;
84816;SDS011;75051;53.104;18.058;2024-02-14T00:03:20;21.30;;;11.80;;
84816;SDS011;75051;53.104;18.058;2024-02-14T00:05:48;23.40;;;11.60;;
84816;SDS011;75051;53.104;18.058;2024-02-14T00:08:17;20.50;;;11.50;;
84816;SDS011;75051;53.104;18.058;2024-02-14T00:10:43;17.20;;;9.90;;
84816;SDS011;75051;53.104;18.058;2024-02-14T00:13:13;16.50;;;9.00;;
84816;SDS011;75051;53.104;18.058;2024-02-14T00:15:40;16.20;;;9.90;;
84816;SDS011;75051;53.104;18.058;2024-02-14T00:18:07;20.20;;;11.00;;
84816;SDS011;75051;53.104;18.058;2024-02-14T00:20:34;18.90;;;10.70;;
84816;SDS011;75051;53.104;18.058;2024-02-14T00:23:00;22.50;;;12.20;;
84816;SDS011;75051;53.104;18.058;2024-02-14T00:25:28;23.70;;;12.20;;
84816;SDS011;75051;53.104;18.058;2024-02-14T00:27:56;19.60;;;13.60;;
84816;SDS011;75051;53.104;18.058;2024-02-14T00:30:24;21.20;;;11.60;;
84816;SDS011;75051;53.104;18.058;2024-02-14T00:32:51;19.10;;;11.40;;
84816;SDS011;75051;53.104;18.058;2024-02-14T00:35:19;21.00;;;13.70;;
84816;SDS011;75051;53.104;18.058;2024-02-14T00:37:45;20.80;;;11.70;;
84816;SDS011;75051;53.104;18.058;2024-02-14T00:40:12;20.40;;;12.30;;
84816;SDS011;75051;53.104;18.058;2024-02-14T00:42:39;16.10;;;12.00;;
84816;SDS011;75051;53.104;18.058;2024-02-14T00:45:06;19.60;;;11.50;;
84816;SDS011;75051;53.104;18.058;2024-02-14T00:47:36;22.40;;;12.10;;
84816;SDS011;75051;53.104;18.058;2024-02-14T00:50:03;18.90;;;12.50;;
84816;SDS011;75051;53.104;18.058;2024-02-14T00:52:30;20.80;;;13.20;;
84816;SDS011;75051;53.104;18.058;2024-02-14T00:54:57;19.10;;;12.10;;
84816;SDS011;75051;53.104;18.058;2024-02-14T00:57:24;23.20;;;14.10;;
84816;SDS011;75051;53.104;18.058;2024-02-14T00:59:52;18.80;;;11.10;;
84816;SDS011;75051;53.104;18.058;2024-02-14T01:02:19;16.20;;;11.10;;
84816;SDS011;75051;53.104;18.058;2024-02-14T01:04:46;25.50;;;12.30;;
84816;SDS011;75051;53.104;18.058;2024-02-14T01:07:12;23.80;;;12.10;;
84816;SDS011;75051;53.104;18.058;2024-02-14T01:09:40;25.30;;;11.90;;
84816;SDS011;75051;53.104;18.058;2024-02-14T01:12:07;18.10;;;12.10;;
84816;SDS011;75051;53.104;18.058;2024-02-14T01:14:34;20.30;;;11.50;;
84816;SDS011;75051;53.104;18.058;2024-02-14T01:17:00;20.60;;;14.20;;
84816;SDS011;75051;53.104;18.058;2024-02-14T01:19:30;23.50;;;13.40;;
84816;SDS011;75051;53.104;18.058;2024-02-14T01:21:58;19.80;;;11.10;;
84816;SDS011;75051;53.104;18.058;2024-02-14T01:24:25;22.90;;;15.30;;
84816;SDS011;75051;53.104;18.058;2024-02-14T01:26:56;20.50;;;16.40;;
84816;SDS011;75051;53.104;18.058;2024-02-14T01:29:23;19.10;;;11.70;;
84816;SDS011;75051;53.104;18.058;2024-02-14T01:31:50;21.30;;;15.80;;
84816;SDS011;75051;53.104;18.058;2024-02-14T01:34:17;20.00;;;14.20;;
84816;SDS011;75051;53.104;18.058;2024-02-14T01:36:44;22.50;;;12.80;;
84816;SDS011;75051;53.104;18.058;2024-02-14T01:39:11;21.30;;;11.30;;
84816;SDS011;75051;53.104;18.058;2024-02-14T01:41:38;21.60;;;12.30;;
84816;SDS011;75051;53.104;18.058;2024-02-14T01:44:04;19.80;;;12.90;;
84816;SDS011;75051;53.104;18.058;2024-02-14T01:46:31;26.90;;;12.50;;
84816;SDS011;75051;53.104;18.058;2024-02-14T01:48:58;21.30;;;13.50;;
84816;SDS011;75051;53.104;18.058;2024-02-14T01:51:25;24.50;;;13.00;;
84816;SDS011;75051;53.104;18.058;2024-02-14T01:53:52;19.60;;;13.40;;
84816;SDS011;75051;53.104;18.058;2024-02-14T01:56:21;22.60;;;13.20;;
84816;SDS011;75051;53.104;18.058;2024-02-14T01:58:55;17.40;;;13.00;;
84816;SDS011;75051;53.104;18.058;2024-02-14T02:01:22;23.50;;;13.40;;
84816;SDS011;75051;53.104;18.058;2024-02-14T02:03:52;21.10;;;11.40;;
84816;SDS011;75051;53.104;18.058;2024-02-14T02:06:19;20.40;;;12.00;;
84816;SDS011;75051;53.104;18.058;2024-02-14T02:08:46;21.00;;;11.00;;
84816;SDS011;75051;53.104;18.058;2024-02-14T02:11:14;20.30;;;11.40;;
84816;SDS011;75051;53.104;18.058;2024-02-14T02:13:42;19.50;;;13.00;;
84816;SDS011;75051;53.104;18.058;2024-02-14T02:16:10;17.30;;;10.80;;
84816;SDS011;75051;53.104;18.058;2024-02-14T02:18:36;20.20;;;12.90;;
84816;SDS011;75051;53.104;18.058;2024-02-14T02:21:03;23.60;;;11.50;;
84816;SDS011;75051;53.104;18.058;2024-02-14T02:23:33;22.20;;;12.10;;
84816;SDS011;75051;53.104;18.058;2024-02-14T02:26:01;21.40;;;14.30;;
84816;SDS011;75051;53.104;18.058;2024-02-14T02:28:30;22.40;;;12.10;;
84816;SDS011;75051;53.104;18.058;2024-02-14T02:30:57;18.50;;;10.80;;
84816;SDS011;75051;53.104;18.058;2024-02-14T02:33:24;22.20;;;12.70;;
84816;SDS011;75051;53.104;18.058;2024-02-14T02:35:50;20.10;;;11.90;;
84816;SDS011;75051;53.104;18.058;2024-02-14T02:38:17;22.80;;;13.20;;
84816;SDS011;75051;53.104;18.058;2024-02-14T02:40:43;20.70;;;12.80;;
84816;SDS011;75051;53.104;18.058;2024-02-14T02:43:11;20.00;;;11.30;;
84816;SDS011;75051;53.104;18.058;2024-02-14T02:45:38;20.00;;;12.50;;
84816;SDS011;75051;53.104;18.058;2024-02-14T02:48:05;22.20;;;11.40;;
84816;SDS011;75051;53.104;18.058;2024-02-14T02:50:34;20.90;;;12.90;;
84816;SDS011;75051;53.104;18.058;2024-02-14T02:53:01;22.00;;;14.00;;
84816;SDS011;75051;53.104;18.058;2024-02-14T02:55:28;20.80;;;14.20;;
84816;SDS011;75051;53.104;18.058;2024-02-14T02:57:55;22.10;;;12.40;;
84816;SDS011;75051;53.104;18.058;2024-02-14T03:00:22;21.80;;;12.60;;
84816;SDS011;75051;53.104;18.058;2024-02-14T03:02:49;20.50;;;13.20;;
84816;SDS011;75051;53.104;18.058;2024-02-14T03:05:16;22.80;;;13.80;;
84816;SDS011;75051;53.104;18.058;2024-02-14T03:07:46;21.80;;;12.80;;
84816;SDS011;75051;53.104;18.058;2024-02-14T03:10:15;17.70;;;10.80;;
84816;SDS011;75051;53.104;18.058;2024-02-14T03:12:47;19.40;;;11.90;;
84816;SDS011;75051;53.104;18.058;2024-02-14T03:15:15;21.30;;;12.60;;
84816;SDS011;75051;53.104;18.058;2024-02-14T03:17:42;20.80;;;11.90;;
84816;SDS011;75051;53.104;18.058;2024-02-14T03:20:09;21.90;;;12.50;;
84816;SDS011;75051;53.104;18.058;2024-02-14T03:22:41;20.70;;;13.20;;
84816;SDS011;75051;53.104;18.058;2024-02-14T03:25:17;22.50;;;12.20;;
84816;SDS011;75051;53.104;18.058;2024-02-14T03:27:45;22.00;;;12.50;;
84816;SDS011;75051;53.104;18.058;2024-02-14T03:30:20;23.70;;;11.80;;
84816;SDS011;75051;53.104;18.058;2024-02-14T03:32:46;23.80;;;13.80;;
84816;SDS011;75051;53.104;18.058;2024-02-14T03:35:13;20.00;;;11.10;;
84816;SDS011;75051;53.104;18.058;2024-02-14T03:37:43;21.00;;;12.90;;
84816;SDS011;75051;53.104;18.058;2024-02-14T03:40:14;24.20;;;14.60;;
84816;SDS011;75051;53.104;18.058;2024-02-14T03:42:40;20.70;;;10.90;;
84816;SDS011;75051;53.104;18.058;2024-02-14T03:45:11;23.30;;;12.00;;
84816;SDS011;75051;53.104;18.058;2024-02-14T03:47:38;24.20;;;13.50;;
84816;SDS011;75051;53.104;18.058;2024-02-14T03:50:06;23.30;;;13.50;;
84816;SDS011;75051;53.104;18.058;2024-02-14T03:52:34;23.10;;;13.00;;
84816;SDS011;75051;53.104;18.058;2024-02-14T03:55:01;21.60;;;11.90;;
84816;SDS011;75051;53.104;18.058;2024-02-14T03:57:29;22.90;;;14.40;;
84816;SDS011;75051;53.104;18.058;2024-02-14T03:59:55;19.40;;;13.60;;
84816;SDS011;75051;53.104;18.058;2024-02-14T04:02:30;20.40;;;11.70;;
84816;SDS011;75051;53.104;18.058;2024-02-14T04:04:58;21.20;;;13.70;;
84816;SDS011;75051;53.104;18.058;2024-02-14T04:07:24;26.80;;;12.50;;
84816;SDS011;75051;53.104;18.058;2024-02-14T04:09:51;23.10;;;12.00;;
84816;SDS011;75051;53.104;18.058;2024-02-14T04:12:20;24.90;;;13.20;;
84816;SDS011;75051;53.104;18.058;2024-02-14T04:14:47;23.00;;;12.60;;
84816;SDS011;75051;53.104;18.058;2024-02-14T04:17:13;25.80;;;13.90;;
84816;SDS011;75051;53.104;18.058;2024-02-14T04:19:41;28.20;;;15.60;;
84816;SDS011;75051;53.104;18.058;2024-02-14T04:22:07;26.30;;;14.50;;
84816;SDS011;75051;53.104;18.058;2024-02-14T04:24:34;23.10;;;14.00;;
84816;SDS011;75051;53.104;18.058;2024-02-14T04:27:01;24.10;;;16.60;;
84816;SDS011;75051;53.104;18.058;2024-02-14T04:29:31;21.90;;;14.80;;
84816;SDS011;75051;53.104;18.058;2024-02-14T04:32:03;20.50;;;12.30;;
84816;SDS011;75051;53.104;18.058;2024-02-14T04:34:31;22.80;;;14.60;;
84816;SDS011;75051;53.104;18.058;2024-02-14T04:36:58;22.50;;;12.80;;
84816;SDS011;75051;53.104;18.058;2024-02-14T04:39:25;23.80;;;13.70;;
84816;SDS011;75051;53.104;18.058;2024-02-14T04:41:52;21.90;;;12.40;;
84816;SDS011;75051;53.104;18.058;2024-02-14T04:44:20;22.30;;;13.00;;
84816;SDS011;75051;53.104;18.058;2024-02-14T04:46:47;23.20;;;13.40;;
84816;SDS011;75051;53.104;18.058;2024-02-14T04:49:13;17.50;;;13.90;;
84816;SDS011;75051;53.104;18.058;2024-02-14T04:51:41;22.00;;;12.60;;
84816;SDS011;75051;53.104;18.058;2024-02-14T04:54:08;22.90;;;12.30;;
84816;SDS011;75051;53.104;18.058;2024-02-14T04:56:36;18.50;;;12.10;;
84816;SDS011;75051;53.104;18.058;2024-02-14T04:59:03;23.10;;;13.10;;
84816;SDS011;75051;53.104;18.058;2024-02-14T05:01:31;20.40;;;11.30;;
84816;SDS011;75051;53.104;18.058;2024-02-14T05:03:58;27.30;;;12.50;;
84816;SDS011;75051;53.104;18.058;2024-02-14T05:06:27;18.20;;;11.90;;
84816;SDS011;75051;53.104;18.058;2024-02-14T05:08:53;21.30;;;13.00;;
84816;SDS011;75051;53.104;18.058;2024-02-14T05:11:20;21.10;;;12.30;;
84816;SDS011;75051;53.104;18.058;2024-02-14T05:13:47;22.20;;;11.80;;
84816;SDS011;75051;53.104;18.058;2024-02-14T05:16:13;23.40;;;12.80;;
84816;SDS011;75051;53.104;18.058;2024-02-14T05:18:44;24.10;;;12.90;;
84816;SDS011;75051;53.104;18.058;2024-02-14T05:21:10;24.50;;;13.40;;
84816;SDS011;75051;53.104;18.058;2024-02-14T05:23:37;24.20;;;14.80;;
84816;SDS011;75051;53.104;18.058;2024-02-14T05:26:04;25.70;;;14.50;;
84816;SDS011;75051;53.104;18.058;2024-02-14T05:28:31;25.80;;;14.60;;
84816;SDS011;75051;53.104;18.058;2024-02-14T05:30:59;28.30;;;14.00;;
84816;SDS011;75051;53.104;18.058;2024-02-14T05:33:26;25.50;;;13.20;;
84816;SDS011;75051;53.104;18.058;2024-02-14T05:35:53;29.50;;;14.20;;
84816;SDS011;75051;53.104;18.058;2024-02-14T05:38:20;27.10;;;14.20;;
84816;SDS011;75051;53.104;18.058;2024-02-14T05:40:47;27.60;;;14.10;;
84816;SDS011;75051;53.104;18.058;2024-02-14T05:43:14;26.10;;;14.00;;
84816;SDS011;75051;53.104;18.058;2024-02-14T05:45:42;22.90;;;14.00;;
84816;SDS011;75051;53.104;18.058;2024-02-14T05:48:09;19.90;;;11.80;;
84816;SDS011;75051;53.104;18.058;2024-02-14T05:50:36;25.80;;;12.80;;
84816;SDS011;75051;53.104;18.058;2024-02-14T05:53:03;21.60;;;13.70;;
84816;SDS011;75051;53.104;18.058;2024-02-14T05:55:30;20.90;;;13.20;;
84816;SDS011;75051;53.104;18.058;2024-02-14T05:57:56;22.50;;;14.30;;
84816;SDS011;75051;53.104;18.058;2024-02-14T06:00:25;18.90;;;13.10;;
84816;SDS011;75051;53.104;18.058;2024-02-14T06:02:55;21.90;;;14.20;;
84816;SDS011;75051;53.104;18.058;2024-02-14T06:05:22;25.10;;;14.20;;
84816;SDS011;75051;53.104;18.058;2024-02-14T06:07:50;22.60;;;15.10;;
84816;SDS011;75051;53.104;18.058;2024-02-14T06:10:17;24.80;;;13.40;;
84816;SDS011;75051;53.104;18.058;2024-02-14T06:12:44;21.00;;;11.00;;
84816;SDS011;75051;53.104;18.058;2024-02-14T06:15:12;20.40;;;13.80;;
84816;SDS011;75051;53.104;18.058;2024-02-14T06:17:39;23.80;;;12.70;;
84816;SDS011;75051;53.104;18.058;2024-02-14T06:20:06;27.10;;;12.80;;
84816;SDS011;75051;53.104;18.058;2024-02-14T06:22:35;21.60;;;12.30;;
84816;SDS011;75051;53.104;18.058;2024-02-14T06:25:02;21.80;;;14.50;;
84816;SDS011;75051;53.104;18.058;2024-02-14T06:27:31;22.40;;;13.30;;
84816;SDS011;75051;53.104;18.058;2024-02-14T06:29:59;23.10;;;12.40;;
84816;SDS011;75051;53.104;18.058;2024-02-14T06:32:26;27.30;;;14.30;;
84816;SDS011;75051;53.104;18.058;2024-02-14T06:34:53;24.30;;;15.20;;
84816;SDS011;75051;53.104;18.058;2024-02-14T06:37:20;25.90;;;13.20;;
84816;SDS011;75051;53.104;18.058;2024-02-14T06:39:48;28.80;;;13.90;;
84816;SDS011;75051;53.104;18.058;2024-02-14T06:42:16;25.00;;;14.80;;
84816;SDS011;75051;53.104;18.058;2024-02-14T06:44:43;24.10;;;14.80;;
84816;SDS011;75051;53.104;18.058;2024-02-14T06:47:10;22.80;;;13.10;;
84816;SDS011;75051;53.104;18.058;2024-02-14T06:49:37;24.10;;;13.80;;
84816;SDS011;75051;53.104;18.058;2024-02-14T06:52:06;23.20;;;13.40;;
84816;SDS011;75051;53.104;18.058;2024-02-14T06:54:32;24.70;;;13.60;;
84816;SDS011;75051;53.104;18.058;2024-02-14T06:56:59;26.40;;;14.00;;
84816;SDS011;75051;53.104;18.058;2024-02-14T06:59:27;23.70;;;14.20;;
84816;SDS011;75051;53.104;18.058;2024-02-14T07:01:54;22.50;;;12.30;;
84816;SDS011;75051;53.104;18.058;2024-02-14T07:04:21;23.60;;;13.10;;
84816;SDS011;75051;53.104;18.058;2024-02-14T07:06:52;25.10;;;13.50;;
84816;SDS011;75051;53.104;18.058;2024-02-14T07:09:21;23.30;;;12.70;;
84816;SDS011;75051;53.104;18.058;2024-02-14T07:11:48;21.80;;;12.40;;
84816;SDS011;75051;53.104;18.058;2024-02-14T07:14:16;21.30;;;14.00;;
84816;SDS011;75051;53.104;18.058;2024-02-14T07:16:43;21.20;;;11.40;;
84816;SDS011;75051;53.104;18.058;2024-02-14T07:19:10;25.30;;;13.90;;
84816;SDS011;75051;53.104;18.058;2024-02-14T07:21:36;22.60;;;12.50;;
84816;SDS011;75051;53.104;18.058;2024-02-14T07:24:05;21.60;;;14.50;;
84816;SDS011;75051;53.104;18.058;2024-02-14T07:26:33;19.70;;;12.10;;
84816;SDS011;75051;53.104;18.058;2024-02-14T07:29:01;17.50;;;13.40;;
84816;SDS011;75051;53.104;18.058;2024-02-14T07:31:29;17.60;;;11.50;;
84816;SDS011;75051;53.104;18.058;2024-02-14T07:34:00;19.90;;;13.50;;
84816;SDS011;75051;53.104;18.058;2024-02-14T07:36:29;18.30;;;11.50;;
84816;SDS011;75051;53.104;18.058;2024-02-14T07:38:57;18.80;;;12.40;;
84816;SDS011;75051;53.104;18.058;2024-02-14T07:41:24;17.90;;;11.40;;
84816;SDS011;75051;53.104;18.058;2024-02-14T07:43:51;19.00;;;13.10;;
84816;SDS011;75051;53.104;18.058;2024-02-14T07:46:19;18.10;;;11.00;;
84816;SDS011;75051;53.104;18.058;2024-02-14T07:48:48;16.80;;;11.00;;
84816;SDS011;75051;53.104;18.058;2024-02-14T07:51:15;19.90;;;13.10;;
84816;SDS011;75051;53.104;18.058;2024-02-14T07:53:43;17.40;;;13.60;;
84816;SDS011;75051;53.104;18.058;2024-02-14T07:56:10;19.30;;;14.30;;
84816;SDS011;75051;53.104;18.058;2024-02-14T07:58:37;18.20;;;13.70;;
84816;SDS011;75051;53.104;18.058;2024-02-14T08:01:05;18.80;;;13.60;;
84816;SDS011;75051;53.104;18.058;2024-02-14T08:03:32;18.10;;;13.10;;
84816;SDS011;75051;53.104;18.058;2024-02-14T08:05:59;17.70;;;11.80;;
84816;SDS011;75051;53.104;18.058;2024-02-14T08:08:27;21.30;;;13.80;;
84816;SDS011;75051;53.104;18.058;2024-02-14T08:10:57;16.50;;;12.20;;
84816;SDS011;75051;53.104;18.058;2024-02-14T08:13:24;18.90;;;13.50;;
84816;SDS011;75051;53.104;18.058;2024-02-14T08:15:51;18.40;;;13.20;;
84816;SDS011;75051;53.104;18.058;2024-02-14T08:18:24;18.80;;;12.20;;
84816;SDS011;75051;53.104;18.058;2024-02-14T08:20:51;17.10;;;13.60;;
84816;SDS011;75051;53.104;18.058;2024-02-14T08:23:18;19.30;;;13.80;;
84816;SDS011;75051;53.104;18.058;2024-02-14T08:25:46;19.30;;;12.20;;
84816;SDS011;75051;53.104;18.058;2024-02-14T08:28:13;15.70;;;11.10;;
84816;SDS011;75051;53.104;18.058;2024-02-14T08:30:42;22.90;;;13.60;;
84816;SDS011;75051;53.104;18.058;2024-02-14T08:33:09;17.50;;;13.50;;
84816;SDS011;75051;53.104;18.058;2024-02-14T08:35:38;19.80;;;11.70;;
84816;SDS011;75051;53.104;18.058;2024-02-14T08:38:06;19.80;;;14.90;;
84816;SDS011;75051;53.104;18.058;2024-02-14T08:40:34;18.80;;;13.00;;
84816;SDS011;75051;53.104;18.058;2024-02-14T08:43:01;19.80;;;12.70;;
84816;SDS011;75051;53.104;18.058;2024-02-14T08:45:28;20.20;;;13.00;;
84816;SDS011;75051;53.104;18.058;2024-02-14T08:47:56;27.20;;;15.40;;
84816;SDS011;75051;53.104;18.058;2024-02-14T08:50:23;19.70;;;14.50;;
84816;SDS011;75051;53.104;18.058;2024-02-14T08:52:50;20.40;;;13.70;;
84816;SDS011;75051;53.104;18.058;2024-02-14T08:55:21;17.70;;;13.10;;
84816;SDS011;75051;53.104;18.058;2024-02-14T08:57:47;17.50;;;11.30;;
84816;SDS011;75051;53.104;18.058;2024-02-14T09:00:14;19.80;;;14.40;;
84816;SDS011;75051;53.104;18.058;2024-02-14T09:02:46;23.30;;;13.90;;
84816;SDS011;75051;53.104;18.058;2024-02-14T09:05:13;17.50;;;11.80;;
84816;SDS011;75051;53.104;18.058;2024-02-14T09:07:40;22.20;;;12.10;;
84816;SDS011;75051;53.104;18.058;2024-02-14T09:10:08;19.10;;;12.10;;
84816;SDS011;75051;53.104;18.058;2024-02-14T09:12:36;23.60;;;14.60;;
84816;SDS011;75051;53.104;18.058;2024-02-14T09:15:04;18.10;;;12.20;;
84816;SDS011;75051;53.104;18.058;2024-02-14T09:17:31;21.70;;;14.30;;
84816;SDS011;75051;53.104;18.058;2024-02-14T09:19:58;18.10;;;10.40;;
84816;SDS011;75051;53.104;18.058;2024-02-14T09:22:26;17.70;;;11.30;;
84816;SDS011;75051;53.104;18.058;2024-02-14T09:24:53;17.80;;;11.40;;
84816;SDS011;75051;53.104;18.058;2024-02-14T09:27:20;15.70;;;10.60;;
84816;SDS011;75051;53.104;18.058;2024-02-14T09:29:47;16.20;;;10.00;;
84816;SDS011;75051;53.104;18.058;2024-02-14T09:32:13;15.10;;;10.50;;
84816;SDS011;75051;53.104;18.058;2024-02-14T09:34:40;18.10;;;10.20;;
84816;SDS011;75051;53.104;18.058;2024-02-14T09:37:06;17.20;;;12.80;;
84816;SDS011;75051;53.104;18.058;2024-02-14T09:39:33;14.80;;;10.50;;
84816;SDS011;75051;53.104;18.058;2024-02-14T09:42:06;16.50;;;10.30;;
84816;SDS011;75051;53.104;18.058;2024-02-14T09:44:35;17.60;;;10.10;;
84816;SDS011;75051;53.104;18.058;2024-02-14T09:47:05;15.40;;;11.50;;
84816;SDS011;75051;53.104;18.058;2024-02-14T09:49:34;13.60;;;8.90;;
84816;SDS011;75051;53.104;18.058;2024-02-14T09:52:03;13.50;;;8.70;;
84816;SDS011;75051;53.104;18.058;2024-02-14T09:54:33;16.00;;;9.30;;
84816;SDS011;75051;53.104;18.058;2024-02-14T09:59:29;11.50;;;7.90;;
84816;SDS011;75051;53.104;18.058;2024-02-14T10:01:58;13.10;;;9.20;;
84816;SDS011;75051;53.104;18.058;2024-02-14T10:04:25;11.20;;;7.90;;
84816;SDS011;75051;53.104;18.058;2024-02-14T10:06:52;14.90;;;9.20;;
84816;SDS011;75051;53.104;18.058;2024-02-14T10:09:22;12.30;;;8.40;;
84816;SDS011;75051;53.104;18.058;2024-02-14T10:11:49;11.30;;;8.30;;
84816;SDS011;75051;53.104;18.058;2024-02-14T10:14:16;10.10;;;7.80;;
84816;SDS011;75051;53.104;18.058;2024-02-14T10:16:42;11.00;;;7.50;;
84816;SDS011;75051;53.104;18.058;2024-02-14T10:19:15;10.70;;;8.70;;
84816;SDS011;75051;53.104;18.058;2024-02-14T10:21:55;11.60;;;9.10;;
84816;SDS011;75051;53.104;18.058;2024-02-14T10:26:54;13.10;;;8.20;;
84816;SDS011;75051;53.104;18.058;2024-02-14T10:31:52;12.70;;;9.60;;
84816;SDS011;75051;53.104;18.058;2024-02-14T10:34:19;11.10;;;7.80;;
84816;SDS011;75051;53.104;18.058;2024-02-14T10:36:52;14.10;;;9.00;;
84816;SDS011;75051;53.104;18.058;2024-02-14T10:39:24;12.00;;;8.70;;
84816;SDS011;75051;53.104;18.058;2024-02-14T10:41:53;8.30;;;6.10;;
84816;SDS011;75051;53.104;18.058;2024-02-14T10:44:25;13.80;;;8.40;;
84816;SDS011;75051;53.104;18.058;2024-02-14T10:46:52;12.20;;;7.80;;
84816;SDS011;75051;53.104;18.058;2024-02-14T10:49:24;16.60;;;9.30;;
84816;SDS011;75051;53.104;18.058;2024-02-14T10:51:52;11.20;;;8.70;;
84816;SDS011;75051;53.104;18.058;2024-02-14T10:54:20;12.70;;;8.60;;
84816;SDS011;75051;53.104;18.058;2024-02-14T10:56:49;12.00;;;8.30;;
84816;SDS011;75051;53.104;18.058;2024-02-14T10:59:20;14.90;;;9.00;;
84816;SDS011;75051;53.104;18.058;2024-02-14T11:01:49;13.00;;;8.40;;
84816;SDS011;75051;53.104;18.058;2024-02-14T11:04:16;17.00;;;8.60;;
84816;SDS011;75051;53.104;18.058;2024-02-14T11:06:47;13.60;;;9.10;;
84816;SDS011;75051;53.104;18.058;2024-02-14T11:09:16;13.60;;;8.30;;
84816;SDS011;75051;53.104;18.058;2024-02-14T11:11:43;14.50;;;8.80;;
84816;SDS011;75051;53.104;18.058;2024-02-14T11:14:10;12.40;;;8.80;;
84816;SDS011;75051;53.104;18.058;2024-02-14T11:16:44;9.20;;;7.40;;
84816;SDS011;75051;53.104;18.058;2024-02-14T11:19:13;9.20;;;6.60;;
84816;SDS011;75051;53.104;18.058;2024-02-14T11:22:13;11.70;;;7.70;;
84816;SDS011;75051;53.104;18.058;2024-02-14T11:24:45;10.60;;;8.80;;
84816;SDS011;75051;53.104;18.058;2024-02-14T11:27:13;12.80;;;7.30;;
84816;SDS011;75051;53.104;18.058;2024-02-14T11:29:50;13.50;;;9.00;;
84816;SDS011;75051;53.104;18.058;2024-02-14T11:32:19;9.00;;;6.80;;
84816;SDS011;75051;53.104;18.058;2024-02-14T11:34:54;9.60;;;6.70;;
84816;SDS011;75051;53.104;18.058;2024-02-14T11:37:28;10.40;;;5.80;;
84816;SDS011;75051;53.104;18.058;2024-02-14T11:39:58;8.20;;;5.70;;
84816;SDS011;75051;53.104;18.058;2024-02-14T11:42:25;10.20;;;6.60;;
84816;SDS011;75051;53.104;18.058;2024-02-14T11:44:52;9.80;;;5.70;;
84816;SDS011;75051;53.104;18.058;2024-02-14T11:47:20;11.30;;;7.70;;
84816;SDS011;75051;53.104;18.058;2024-02-14T11:49:47;12.00;;;7.70;;
84816;SDS011;75051;53.104;18.058;2024-02-14T11:52:14;10.60;;;6.30;;
84816;SDS011;75051;53.104;18.058;2024-02-14T11:54:45;10.60;;;7.40;;
84816;SDS011;75051;53.104;18.058;2024-02-14T11:57:18;10.60;;;7.60;;
84816;SDS011;75051;53.104;18.058;2024-02-14T11:59:50;9.90;;;7.70;;
84816;SDS011;75051;53.104;18.058;2024-02-14T12:02:20;13.30;;;8.40;;
84816;SDS011;75051;53.104;18.058;2024-02-14T12:04:47;13.20;;;7.90;;
84816;SDS011;75051;53.104;18.058;2024-02-14T12:07:16;11.10;;;8.00;;
84816;SDS011;75051;53.104;18.058;2024-02-14T12:09:44;13.00;;;8.10;;
84816;SDS011;75051;53.104;18.058;2024-02-14T12:12:12;12.80;;;7.90;;
84816;SDS011;75051;53.104;18.058;2024-02-14T12:14:39;10.30;;;7.30;;
84816;SDS011;75051;53.104;18.058;2024-02-14T12:17:06;15.10;;;8.60;;
84816;SDS011;75051;53.104;18.058;2024-02-14T12:19:35;10.50;;;7.00;;
84816;SDS011;75051;53.104;18.058;2024-02-14T12:22:08;10.90;;;6.80;;
84816;SDS011;75051;53.104;18.058;2024-02-14T12:24:56;11.20;;;7.90;;
84816;SDS011;75051;53.104;18.058;2024-02-14T12:27:24;11.20;;;7.70;;
84816;SDS011;75051;53.104;18.058;2024-02-14T12:29:51;9.30;;;7.00;;
84816;SDS011;75051;53.104;18.058;2024-02-14T12:32:37;11.80;;;7.70;;
84816;SDS011;75051;53.104;18.058;2024-02-14T12:35:07;11.70;;;6.80;;
84816;SDS011;75051;53.104;18.058;2024-02-14T12:37:37;9.70;;;7.00;;
84816;SDS011;75051;53.104;18.058;2024-02-14T12:40:05;10.90;;;7.20;;
84816;SDS011;75051;53.104;18.058;2024-02-14T12:42:33;9.40;;;7.70;;
84816;SDS011;75051;53.104;18.058;2024-02-14T12:45:02;10.70;;;6.60;;
84816;SDS011;75051;53.104;18.058;2024-02-14T12:47:29;12.30;;;8.10;;
84816;SDS011;75051;53.104;18.058;2024-02-14T12:49:58;10.20;;;7.00;;
84816;SDS011;75051;53.104;18.058;2024-02-14T12:52:26;9.70;;;7.60;;
84816;SDS011;75051;53.104;18.058;2024-02-14T12:54:53;9.90;;;7.00;;
84816;SDS011;75051;53.104;18.058;2024-02-14T12:57:22;8.50;;;5.10;;
84816;SDS011;75051;53.104;18.058;2024-02-14T12:59:49;7.80;;;5.20;;
84816;SDS011;75051;53.104;18.058;2024-02-14T13:02:23;8.40;;;5.60;;
84816;SDS011;75051;53.104;18.058;2024-02-14T13:04:55;9.70;;;6.80;;
84816;SDS011;75051;53.104;18.058;2024-02-14T13:07:22;8.40;;;6.20;;
84816;SDS011;75051;53.104;18.058;2024-02-14T13:09:48;11.60;;;7.50;;
84816;SDS011;75051;53.104;18.058;2024-02-14T13:12:15;12.50;;;6.90;;
84816;SDS011;75051;53.104;18.058;2024-02-14T13:14:41;12.50;;;6.90;;
84816;SDS011;75051;53.104;18.058;2024-02-14T13:17:08;13.30;;;7.00;;
84816;SDS011;75051;53.104;18.058;2024-02-14T13:19:38;11.60;;;8.10;;
84816;SDS011;75051;53.104;18.058;2024-02-14T13:22:06;12.30;;;7.90;;
84816;SDS011;75051;53.104;18.058;2024-02-14T13:24:32;12.60;;;8.00;;
84816;SDS011;75051;53.104;18.058;2024-02-14T13:26:59;12.20;;;7.40;;
84816;SDS011;75051;53.104;18.058;2024-02-14T13:29:26;12.80;;;8.00;;
84816;SDS011;75051;53.104;18.058;2024-02-14T13:31:53;12.30;;;9.00;;
84816;SDS011;75051;53.104;18.058;2024-02-14T13:34:19;10.80;;;8.30;;
84816;SDS011;75051;53.104;18.058;2024-02-14T13:36:47;12.60;;;8.60;;
84816;SDS011;75051;53.104;18.058;2024-02-14T13:39:14;13.50;;;7.40;;
84816;SDS011;75051;53.104;18.058;2024-02-14T13:41:41;13.20;;;8.50;;
84816;SDS011;75051;53.104;18.058;2024-02-14T13:44:10;11.50;;;7.70;;
84816;SDS011;75051;53.104;18.058;2024-02-14T13:46:41;12.50;;;8.60;;
84816;SDS011;75051;53.104;18.058;2024-02-14T13:49:11;10.90;;;7.20;;
84816;SDS011;75051;53.104;18.058;2024-02-14T13:51:38;16.00;;;9.70;;
84816;SDS011;75051;53.104;18.058;2024-02-14T13:54:05;12.10;;;8.50;;
84816;SDS011;75051;53.104;18.058;2024-02-14T13:56:32;10.60;;;7.80;;
84816;SDS011;75051;53.104;18.058;2024-02-14T13:58:59;12.90;;;7.70;;
84816;SDS011;75051;53.104;18.058;2024-02-14T14:01:26;10.10;;;6.70;;
84816;SDS011;75051;53.104;18.058;2024-02-14T14:03:53;13.20;;;8.90;;
84816;SDS011;75051;53.104;18.058;2024-02-14T14:06:22;14.20;;;7.80;;
84816;SDS011;75051;53.104;18.058;2024-02-14T14:08:51;11.60;;;7.40;;
84816;SDS011;75051;53.104;18.058;2024-02-14T14:11:18;12.20;;;9.30;;
84816;SDS011;75051;53.104;18.058;2024-02-14T14:13:46;13.80;;;9.60;;
84816;SDS011;75051;53.104;18.058;2024-02-14T14:16:13;12.90;;;9.20;;
84816;SDS011;75051;53.104;18.058;2024-02-14T14:18:39;11.30;;;7.90;;
84816;SDS011;75051;53.104;18.058;2024-02-14T14:21:09;12.10;;;7.70;;
84816;SDS011;75051;53.104;18.058;2024-02-14T14:23:35;13.20;;;8.50;;
84816;SDS011;75051;53.104;18.058;2024-02-14T14:26:03;13.60;;;9.60;;